sensor_id;sensor_type;location;lat;lon;timestamp;temperature;humidity
53314;DHT22;39202;51.468;7.146;2022-09-13T00:02:06;29.20;41.30
53314;DHT22;39202;51.468;7.146;2022-09-13T00:07:09;29.20;41.20
53314;DHT22;39202;51.468;7.146;2022-09-13T00:12:10;29.30;41.30
53314;DHT22;39202;51.468;7.146;2022-09-13T00:17:12;29.20;41.20
53314;DHT22;39202;51.468;7.146;2022-09-13T00:22:15;29.20;41.20
53314;DHT22;39202;51.468;7.146;2022-09-13T00:27:17;29.20;41.30
53314;DHT22;39202;51.468;7.146;2022-09-13T00:32:19;29.20;41.30
53314;DHT22;39202;51.468;7.146;2022-09-13T00:37:22;29.20;41.30
53314;DHT22;39202;51.468;7.146;2022-09-13T00:42:24;29.20;41.30
53314;DHT22;39202;51.468;7.146;2022-09-13T00:47:33;29.20;41.40
53314;DHT22;39202;51.468;7.146;2022-09-13T00:52:37;29.20;41.40
53314;DHT22;39202;51.468;7.146;2022-09-13T00:57:41;29.20;41.40
53314;DHT22;39202;51.468;7.146;2022-09-13T01:02:45;29.20;41.40
53314;DHT22;39202;51.468;7.146;2022-09-13T01:07:50;29.10;41.30
53314;DHT22;39202;51.468;7.146;2022-09-13T01:12:55;29.10;41.30
53314;DHT22;39202;51.468;7.146;2022-09-13T01:17:59;29.20;41.40
53314;DHT22;39202;51.468;7.146;2022-09-13T01:23:22;29.10;41.20
53314;DHT22;39202;51.468;7.146;2022-09-13T01:28:57;29.10;41.30
53314;DHT22;39202;51.468;7.146;2022-09-13T01:34:19;29.10;41.30
53314;DHT22;39202;51.468;7.146;2022-09-13T01:39:38;29.10;41.30
53314;DHT22;39202;51.468;7.146;2022-09-13T01:44:58;29.10;41.40
53314;DHT22;39202;51.468;7.146;2022-09-13T01:50:14;29.10;41.30
53314;DHT22;39202;51.468;7.146;2022-09-13T01:55:24;29.10;41.40
53314;DHT22;39202;51.468;7.146;2022-09-13T02:00:28;29.60;41.70
53314;DHT22;39202;51.468;7.146;2022-09-13T02:05:38;29.10;41.30
53314;DHT22;39202;51.468;7.146;2022-09-13T02:10:44;29.10;41.30
53314;DHT22;39202;51.468;7.146;2022-09-13T02:15:49;29.10;41.40
53314;DHT22;39202;51.468;7.146;2022-09-13T02:20:57;29.10;41.40
53314;DHT22;39202;51.468;7.146;2022-09-13T02:26:03;29.10;41.40
53314;DHT22;39202;51.468;7.146;2022-09-13T02:31:07;29.10;41.40
53314;DHT22;39202;51.468;7.146;2022-09-13T02:36:13;29.10;41.40
53314;DHT22;39202;51.468;7.146;2022-09-13T02:41:20;29.00;41.30
53314;DHT22;39202;51.468;7.146;2022-09-13T02:46:39;29.00;41.30
53314;DHT22;39202;51.468;7.146;2022-09-13T02:51:50;29.00;41.30
53314;DHT22;39202;51.468;7.146;2022-09-13T02:56:58;29.00;41.30
53314;DHT22;39202;51.468;7.146;2022-09-13T03:02:04;29.00;41.40
53314;DHT22;39202;51.468;7.146;2022-09-13T03:07:10;29.00;41.40
53314;DHT22;39202;51.468;7.146;2022-09-13T03:12:32;29.00;41.30
53314;DHT22;39202;51.468;7.146;2022-09-13T03:17:44;29.00;41.40
53314;DHT22;39202;51.468;7.146;2022-09-13T03:28:23;29.00;50.90
53314;DHT22;39202;51.468;7.146;2022-09-13T03:33:30;28.90;50.80
53314;DHT22;39202;51.468;7.146;2022-09-13T03:38:38;28.90;51.70
53314;DHT22;39202;51.468;7.146;2022-09-13T03:43:44;28.80;52.10
53314;DHT22;39202;51.468;7.146;2022-09-13T03:48:48;28.80;51.90
53314;DHT22;39202;51.468;7.146;2022-09-13T03:53:56;28.80;51.60
53314;DHT22;39202;51.468;7.146;2022-09-13T03:59:01;28.90;51.80
53314;DHT22;39202;51.468;7.146;2022-09-13T04:04:02;28.80;52.00
53314;DHT22;39202;51.468;7.146;2022-09-13T04:09:05;28.80;51.80
53314;DHT22;39202;51.468;7.146;2022-09-13T04:14:07;29.30;52.10
53314;DHT22;39202;51.468;7.146;2022-09-13T04:19:09;28.60;51.20
53314;DHT22;39202;51.468;7.146;2022-09-13T04:24:12;28.90;41.30
53314;DHT22;39202;51.468;7.146;2022-09-13T04:29:14;28.90;41.30
53314;DHT22;39202;51.468;7.146;2022-09-13T04:34:16;28.90;41.30
53314;DHT22;39202;51.468;7.146;2022-09-13T04:39:19;28.90;41.60
53314;DHT22;39202;51.468;7.146;2022-09-13T04:44:21;28.90;41.40
53314;DHT22;39202;51.468;7.146;2022-09-13T04:49:23;28.90;41.40
53314;DHT22;39202;51.468;7.146;2022-09-13T04:54:26;28.90;41.20
53314;DHT22;39202;51.468;7.146;2022-09-13T04:59:28;28.90;41.30
53314;DHT22;39202;51.468;7.146;2022-09-13T05:04:30;28.90;41.30
53314;DHT22;39202;51.468;7.146;2022-09-13T05:09:33;29.00;41.40
53314;DHT22;39202;51.468;7.146;2022-09-13T05:14:35;28.90;41.30
53314;DHT22;39202;51.468;7.146;2022-09-13T05:19:36;28.90;41.30
53314;DHT22;39202;51.468;7.146;2022-09-13T05:24:39;28.90;41.30
53314;DHT22;39202;51.468;7.146;2022-09-13T05:29:42;28.90;41.30
53314;DHT22;39202;51.468;7.146;2022-09-13T05:34:44;28.80;41.30
53314;DHT22;39202;51.468;7.146;2022-09-13T05:39:48;28.80;42.00
53314;DHT22;39202;51.468;7.146;2022-09-13T05:44:50;28.80;41.30
53314;DHT22;39202;51.468;7.146;2022-09-13T05:49:51;28.80;41.30
53314;DHT22;39202;51.468;7.146;2022-09-13T05:54:54;28.80;41.30
53314;DHT22;39202;51.468;7.146;2022-09-13T05:59:56;28.80;41.20
53314;DHT22;39202;51.468;7.146;2022-09-13T06:04:58;29.30;41.60
53314;DHT22;39202;51.468;7.146;2022-09-13T06:10:01;28.80;41.20
53314;DHT22;39202;51.468;7.146;2022-09-13T06:15:04;28.80;41.20
53314;DHT22;39202;51.468;7.146;2022-09-13T06:20:08;28.80;41.30
53314;DHT22;39202;51.468;7.146;2022-09-13T06:25:12;28.90;41.30
53314;DHT22;39202;51.468;7.146;2022-09-13T06:30:14;28.80;41.30
53314;DHT22;39202;51.468;7.146;2022-09-13T06:35:15;28.80;41.20
53314;DHT22;39202;51.468;7.146;2022-09-13T06:40:18;28.80;41.20
53314;DHT22;39202;51.468;7.146;2022-09-13T06:45:23;28.80;41.20
53314;DHT22;39202;51.468;7.146;2022-09-13T06:50:25;28.80;41.30
53314;DHT22;39202;51.468;7.146;2022-09-13T06:55:28;28.80;41.50
53314;DHT22;39202;51.468;7.146;2022-09-13T07:00:30;28.90;41.60
53314;DHT22;39202;51.468;7.146;2022-09-13T07:05:32;28.90;41.60
53314;DHT22;39202;51.468;7.146;2022-09-13T07:10:35;28.90;41.60
53314;DHT22;39202;51.468;7.146;2022-09-13T07:15:36;29.00;41.60
53314;DHT22;39202;51.468;7.146;2022-09-13T07:20:39;28.90;41.50
53314;DHT22;39202;51.468;7.146;2022-09-13T07:25:42;29.00;41.70
53314;DHT22;39202;51.468;7.146;2022-09-13T07:30:44;29.00;41.70
53314;DHT22;39202;51.468;7.146;2022-09-13T07:35:54;29.00;41.50
53314;DHT22;39202;51.468;7.146;2022-09-13T07:40:57;29.10;41.80
53314;DHT22;39202;51.468;7.146;2022-09-13T07:46:00;29.10;41.60
53314;DHT22;39202;51.468;7.146;2022-09-13T07:51:03;29.10;41.70
53314;DHT22;39202;51.468;7.146;2022-09-13T07:56:08;29.10;41.70
53314;DHT22;39202;51.468;7.146;2022-09-13T08:01:13;29.20;41.80
53314;DHT22;39202;51.468;7.146;2022-09-13T08:06:15;29.20;41.80
53314;DHT22;39202;51.468;7.146;2022-09-13T08:11:21;29.20;41.70
53314;DHT22;39202;51.468;7.146;2022-09-13T08:16:24;29.30;41.90
53314;DHT22;39202;51.468;7.146;2022-09-13T08:21:30;29.30;41.90
53314;DHT22;39202;51.468;7.146;2022-09-13T08:26:34;29.20;41.90
53314;DHT22;39202;51.468;7.146;2022-09-13T08:31:36;29.20;41.90
53314;DHT22;39202;51.468;7.146;2022-09-13T08:36:38;29.20;41.90
53314;DHT22;39202;51.468;7.146;2022-09-13T08:42:02;29.20;42.00
53314;DHT22;39202;51.468;7.146;2022-09-13T08:47:23;29.20;42.20
53314;DHT22;39202;51.468;7.146;2022-09-13T08:52:29;29.30;42.30
53314;DHT22;39202;51.468;7.146;2022-09-13T08:57:44;29.30;42.20
53314;DHT22;39202;51.468;7.146;2022-09-13T09:03:00;29.40;42.20
53314;DHT22;39202;51.468;7.146;2022-09-13T09:08:08;29.50;42.30
53314;DHT22;39202;51.468;7.146;2022-09-13T09:13:16;29.50;42.20
53314;DHT22;39202;51.468;7.146;2022-09-13T09:18:22;29.50;42.20
53314;DHT22;39202;51.468;7.146;2022-09-13T09:23:29;29.70;42.20
53314;DHT22;39202;51.468;7.146;2022-09-13T09:28:34;29.70;42.20
53314;DHT22;39202;51.468;7.146;2022-09-13T09:33:45;29.70;42.10
53314;DHT22;39202;51.468;7.146;2022-09-13T09:38:50;29.80;42.20
53314;DHT22;39202;51.468;7.146;2022-09-13T09:43:58;29.90;42.10
53314;DHT22;39202;51.468;7.146;2022-09-13T09:49:06;29.80;42.20
53314;DHT22;39202;51.468;7.146;2022-09-13T09:54:34;29.90;42.10
53314;DHT22;39202;51.468;7.146;2022-09-13T09:59:38;30.00;43.20
53314;DHT22;39202;51.468;7.146;2022-09-13T10:04:41;30.30;42.10
53314;DHT22;39202;51.468;7.146;2022-09-13T10:09:56;30.10;42.20
53314;DHT22;39202;51.468;7.146;2022-09-13T10:15:10;30.10;41.80
53314;DHT22;39202;51.468;7.146;2022-09-13T10:20:20;30.10;42.00
53314;DHT22;39202;51.468;7.146;2022-09-13T10:25:26;30.10;41.90
53314;DHT22;39202;51.468;7.146;2022-09-13T10:30:34;30.20;42.00
53314;DHT22;39202;51.468;7.146;2022-09-13T10:35:37;30.10;41.90
53314;DHT22;39202;51.468;7.146;2022-09-13T10:40:46;30.20;41.80
53314;DHT22;39202;51.468;7.146;2022-09-13T10:45:50;30.10;41.80
53314;DHT22;39202;51.468;7.146;2022-09-13T10:51:04;30.00;41.90
53314;DHT22;39202;51.468;7.146;2022-09-13T10:56:18;30.10;42.60
53314;DHT22;39202;51.468;7.146;2022-09-13T11:01:41;30.10;42.20
53314;DHT22;39202;51.468;7.146;2022-09-13T11:06:48;30.30;44.10
53314;DHT22;39202;51.468;7.146;2022-09-13T11:11:59;30.40;43.20
53314;DHT22;39202;51.468;7.146;2022-09-13T11:17:14;30.00;43.00
53314;DHT22;39202;51.468;7.146;2022-09-13T11:22:40;30.20;45.70
53314;DHT22;39202;51.468;7.146;2022-09-13T11:27:53;30.30;43.40
53314;DHT22;39202;51.468;7.146;2022-09-13T11:33:11;30.00;42.40
53314;DHT22;39202;51.468;7.146;2022-09-13T11:38:31;30.20;42.50
53314;DHT22;39202;51.468;7.146;2022-09-13T11:43:51;30.10;42.20
53314;DHT22;39202;51.468;7.146;2022-09-13T11:49:20;30.20;42.30
53314;DHT22;39202;51.468;7.146;2022-09-13T11:54:35;30.20;42.30
53314;DHT22;39202;51.468;7.146;2022-09-13T11:59:45;30.40;42.30
53314;DHT22;39202;51.468;7.146;2022-09-13T12:04:55;30.30;42.20
53314;DHT22;39202;51.468;7.146;2022-09-13T12:10:02;30.30;42.20
53314;DHT22;39202;51.468;7.146;2022-09-13T12:15:06;30.30;42.30
53314;DHT22;39202;51.468;7.146;2022-09-13T12:20:22;30.30;42.30
53314;DHT22;39202;51.468;7.146;2022-09-13T12:25:32;30.40;42.40
53314;DHT22;39202;51.468;7.146;2022-09-13T12:30:41;30.30;42.40
53314;DHT22;39202;51.468;7.146;2022-09-13T12:36:04;30.30;42.40
53314;DHT22;39202;51.468;7.146;2022-09-13T12:41:25;30.30;42.40
53314;DHT22;39202;51.468;7.146;2022-09-13T12:52:19;30.30;42.70
53314;DHT22;39202;51.468;7.146;2022-09-13T12:57:29;30.40;42.50
53314;DHT22;39202;51.468;7.146;2022-09-13T13:02:37;30.40;42.40
53314;DHT22;39202;51.468;7.146;2022-09-13T13:07:41;30.40;42.30
53314;DHT22;39202;51.468;7.146;2022-09-13T13:12:46;30.50;42.20
53314;DHT22;39202;51.468;7.146;2022-09-13T13:17:51;30.50;42.40
53314;DHT22;39202;51.468;7.146;2022-09-13T13:23:02;30.50;42.30
53314;DHT22;39202;51.468;7.146;2022-09-13T13:33:47;30.50;42.40
53314;DHT22;39202;51.468;7.146;2022-09-13T13:38:51;30.40;42.50
53314;DHT22;39202;51.468;7.146;2022-09-13T13:43:53;30.50;42.60
53314;DHT22;39202;51.468;7.146;2022-09-13T13:48:55;30.40;42.60
53314;DHT22;39202;51.468;7.146;2022-09-13T13:54:59;30.30;42.80
53314;DHT22;39202;51.468;7.146;2022-09-13T14:00:09;30.30;43.00
53314;DHT22;39202;51.468;7.146;2022-09-13T14:05:15;30.30;43.10
53314;DHT22;39202;51.468;7.146;2022-09-13T14:10:26;30.20;43.10
53314;DHT22;39202;51.468;7.146;2022-09-13T14:15:43;30.20;43.30
53314;DHT22;39202;51.468;7.146;2022-09-13T14:20:58;30.30;43.40
53314;DHT22;39202;51.468;7.146;2022-09-13T14:26:03;30.30;43.30
53314;DHT22;39202;51.468;7.146;2022-09-13T14:31:06;30.30;43.20
53314;DHT22;39202;51.468;7.146;2022-09-13T14:36:16;30.30;43.10
53314;DHT22;39202;51.468;7.146;2022-09-13T14:41:21;30.30;43.30
53314;DHT22;39202;51.468;7.146;2022-09-13T14:46:26;30.30;43.30
53314;DHT22;39202;51.468;7.146;2022-09-13T14:51:31;30.30;43.30
53314;DHT22;39202;51.468;7.146;2022-09-13T14:56:39;30.30;43.30
53314;DHT22;39202;51.468;7.146;2022-09-13T15:01:42;30.20;43.40
53314;DHT22;39202;51.468;7.146;2022-09-13T15:06:44;30.20;43.20
53314;DHT22;39202;51.468;7.146;2022-09-13T15:11:59;30.20;43.40
53314;DHT22;39202;51.468;7.146;2022-09-13T15:17:07;30.20;43.60
53314;DHT22;39202;51.468;7.146;2022-09-13T15:22:18;30.20;43.70
53314;DHT22;39202;51.468;7.146;2022-09-13T15:27:25;30.10;43.80
53314;DHT22;39202;51.468;7.146;2022-09-13T15:32:32;30.10;43.90
53314;DHT22;39202;51.468;7.146;2022-09-13T15:37:36;30.10;44.00
53314;DHT22;39202;51.468;7.146;2022-09-13T15:42:44;30.10;43.90
53314;DHT22;39202;51.468;7.146;2022-09-13T15:47:47;30.10;43.90
53314;DHT22;39202;51.468;7.146;2022-09-13T15:52:49;30.10;43.80
53314;DHT22;39202;51.468;7.146;2022-09-13T15:57:52;30.10;43.70
53314;DHT22;39202;51.468;7.146;2022-09-13T16:02:54;30.20;43.80
53314;DHT22;39202;51.468;7.146;2022-09-13T16:07:56;30.20;43.60
53314;DHT22;39202;51.468;7.146;2022-09-13T16:12:59;30.20;43.60
53314;DHT22;39202;51.468;7.146;2022-09-13T16:18:02;30.20;43.40
53314;DHT22;39202;51.468;7.146;2022-09-13T16:23:04;30.20;43.40
53314;DHT22;39202;51.468;7.146;2022-09-13T16:28:08;30.30;43.40
53314;DHT22;39202;51.468;7.146;2022-09-13T16:33:14;30.20;43.50
53314;DHT22;39202;51.468;7.146;2022-09-13T16:38:16;30.30;43.30
53314;DHT22;39202;51.468;7.146;2022-09-13T16:43:19;30.20;43.20
53314;DHT22;39202;51.468;7.146;2022-09-13T16:53:22;30.30;42.90
53314;DHT22;39202;51.468;7.146;2022-09-13T16:58:25;30.30;43.20
53314;DHT22;39202;51.468;7.146;2022-09-13T17:03:27;30.30;43.30
53314;DHT22;39202;51.468;7.146;2022-09-13T17:08:30;30.30;43.20
53314;DHT22;39202;51.468;7.146;2022-09-13T17:13:33;30.20;43.30
53314;DHT22;39202;51.468;7.146;2022-09-13T17:18:35;30.20;43.20
53314;DHT22;39202;51.468;7.146;2022-09-13T17:23:37;30.20;43.10
53314;DHT22;39202;51.468;7.146;2022-09-13T17:28:40;30.30;43.20
53314;DHT22;39202;51.468;7.146;2022-09-13T17:33:42;30.20;43.00
53314;DHT22;39202;51.468;7.146;2022-09-13T17:38:44;30.20;43.10
53314;DHT22;39202;51.468;7.146;2022-09-13T17:43:47;30.20;43.00
53314;DHT22;39202;51.468;7.146;2022-09-13T17:48:49;30.20;43.10
53314;DHT22;39202;51.468;7.146;2022-09-13T17:53:53;30.20;43.10
53314;DHT22;39202;51.468;7.146;2022-09-13T17:59:03;30.20;43.10
53314;DHT22;39202;51.468;7.146;2022-09-13T18:04:05;30.10;42.90
53314;DHT22;39202;51.468;7.146;2022-09-13T18:09:08;30.20;43.00
53314;DHT22;39202;51.468;7.146;2022-09-13T18:14:12;30.20;43.00
53314;DHT22;39202;51.468;7.146;2022-09-13T18:19:15;30.20;43.00
53314;DHT22;39202;51.468;7.146;2022-09-13T18:24:16;30.10;42.90
53314;DHT22;39202;51.468;7.146;2022-09-13T18:29:19;30.20;42.90
53314;DHT22;39202;51.468;7.146;2022-09-13T18:34:21;30.20;42.90
53314;DHT22;39202;51.468;7.146;2022-09-13T18:39:23;30.10;42.70
53314;DHT22;39202;51.468;7.146;2022-09-13T18:44:26;30.20;42.80
53314;DHT22;39202;51.468;7.146;2022-09-13T18:49:29;30.20;42.90
53314;DHT22;39202;51.468;7.146;2022-09-13T18:54:31;30.10;42.80
53314;DHT22;39202;51.468;7.146;2022-09-13T18:59:35;30.20;42.90
53314;DHT22;39202;51.468;7.146;2022-09-13T19:04:37;30.10;42.70
53314;DHT22;39202;51.468;7.146;2022-09-13T19:09:39;30.10;42.70
53314;DHT22;39202;51.468;7.146;2022-09-13T19:14:42;30.10;42.70
53314;DHT22;39202;51.468;7.146;2022-09-13T19:19:44;30.10;42.80
53314;DHT22;39202;51.468;7.146;2022-09-13T19:24:46;30.00;42.60
53314;DHT22;39202;51.468;7.146;2022-09-13T19:29:52;30.10;42.80
53314;DHT22;39202;51.468;7.146;2022-09-13T19:34:54;30.10;42.70
53314;DHT22;39202;51.468;7.146;2022-09-13T19:39:55;30.10;42.70
53314;DHT22;39202;51.468;7.146;2022-09-13T19:44:59;30.10;42.70
53314;DHT22;39202;51.468;7.146;2022-09-13T19:50:00;30.00;42.60
53314;DHT22;39202;51.468;7.146;2022-09-13T19:55:04;30.00;42.70
53314;DHT22;39202;51.468;7.146;2022-09-13T20:00:09;30.00;42.80
53314;DHT22;39202;51.468;7.146;2022-09-13T20:05:11;30.00;42.70
53314;DHT22;39202;51.468;7.146;2022-09-13T20:10:13;30.00;42.60
53314;DHT22;39202;51.468;7.146;2022-09-13T20:15:17;30.00;42.60
53314;DHT22;39202;51.468;7.146;2022-09-13T20:20:19;30.00;42.50
53314;DHT22;39202;51.468;7.146;2022-09-13T20:25:22;30.00;42.60
53314;DHT22;39202;51.468;7.146;2022-09-13T20:30:25;30.00;42.50
53314;DHT22;39202;51.468;7.146;2022-09-13T20:35:27;30.00;42.60
53314;DHT22;39202;51.468;7.146;2022-09-13T20:40:31;30.00;42.60
53314;DHT22;39202;51.468;7.146;2022-09-13T20:45:34;29.90;42.50
53314;DHT22;39202;51.468;7.146;2022-09-13T20:50:36;30.00;42.50
53314;DHT22;39202;51.468;7.146;2022-09-13T20:55:39;30.00;42.60
53314;DHT22;39202;51.468;7.146;2022-09-13T21:00:42;30.00;42.50
53314;DHT22;39202;51.468;7.146;2022-09-13T21:05:45;29.90;42.50
53314;DHT22;39202;51.468;7.146;2022-09-13T21:10:59;29.90;42.50
53314;DHT22;39202;51.468;7.146;2022-09-13T21:16:29;29.90;42.60
53314;DHT22;39202;51.468;7.146;2022-09-13T21:21:32;29.90;42.60
53314;DHT22;39202;51.468;7.146;2022-09-13T21:26:35;30.70;43.20
53314;DHT22;39202;51.468;7.146;2022-09-13T21:31:40;29.90;42.60
53314;DHT22;39202;51.468;7.146;2022-09-13T21:36:43;29.90;42.50
53314;DHT22;39202;51.468;7.146;2022-09-13T21:41:45;29.90;42.60
53314;DHT22;39202;51.468;7.146;2022-09-13T21:46:48;29.90;42.50
53314;DHT22;39202;51.468;7.146;2022-09-13T21:51:51;29.90;42.50
53314;DHT22;39202;51.468;7.146;2022-09-13T21:56:54;29.90;42.60
53314;DHT22;39202;51.468;7.146;2022-09-13T22:01:57;29.90;42.50
53314;DHT22;39202;51.468;7.146;2022-09-13T22:06:59;29.80;42.40
53314;DHT22;39202;51.468;7.146;2022-09-13T22:12:01;29.80;42.40
53314;DHT22;39202;51.468;7.146;2022-09-13T22:17:04;29.80;42.40
53314;DHT22;39202;51.468;7.146;2022-09-13T22:22:07;29.80;42.40
53314;DHT22;39202;51.468;7.146;2022-09-13T22:27:08;29.80;42.40
53314;DHT22;39202;51.468;7.146;2022-09-13T22:32:12;29.80;42.40
53314;DHT22;39202;51.468;7.146;2022-09-13T22:37:14;30.80;43.00
53314;DHT22;39202;51.468;7.146;2022-09-13T22:42:15;29.70;42.30
53314;DHT22;39202;51.468;7.146;2022-09-13T22:47:18;29.80;42.40
53314;DHT22;39202;51.468;7.146;2022-09-13T22:52:20;29.80;42.50
53314;DHT22;39202;51.468;7.146;2022-09-13T22:57:22;30.70;43.00
53314;DHT22;39202;51.468;7.146;2022-09-13T23:02:25;29.80;42.40
53314;DHT22;39202;51.468;7.146;2022-09-13T23:07:26;29.80;42.40
53314;DHT22;39202;51.468;7.146;2022-09-13T23:12:28;29.80;42.40
53314;DHT22;39202;51.468;7.146;2022-09-13T23:17:31;29.80;43.00
53314;DHT22;39202;51.468;7.146;2022-09-13T23:22:33;29.80;42.40
53314;DHT22;39202;51.468;7.146;2022-09-13T23:27:35;29.80;42.40
53314;DHT22;39202;51.468;7.146;2022-09-13T23:32:38;29.70;42.30
53314;DHT22;39202;51.468;7.146;2022-09-13T23:37:40;29.70;42.20
53314;DHT22;39202;51.468;7.146;2022-09-13T23:42:41;29.70;42.20
53314;DHT22;39202;51.468;7.146;2022-09-13T23:47:44;29.70;42.30
53314;DHT22;39202;51.468;7.146;2022-09-13T23:52:46;29.70;42.40
53314;DHT22;39202;51.468;7.146;2022-09-13T23:57:48;29.70;42.40
